Terminal Aerodrome Forecast
Issued by NWS

Home | Current Version | Previous Version | Text Only | Print | Product List | Glossary Off
Versions: 1 2 3 4 5 6 7 8 9 10 11 12 13 14 15 16 17 18

036
FTUS43 KBIS 230209 AAA
TAFJMS
TAF AMD
KJMS 230209Z 2302/2324 04018G25KT P6SM BKN012 OVC050
      TEMPO 2302/2305 SCT012 OVC050
     FM230500 04013G21KT P6SM VCSH BKN015 OVC050
     FM230800 05013G21KT P6SM VCSH OVC020
     FM231000 05014G20KT 5SM -RASN OVC015
      TEMPO 2311/2315 3SM -SN OVC008
     FM231700 07015G24KT P6SM VCSH OVC015=

USA.gov is the U.S. government's official web portal to all federal, state and local government web resources and services.